Time;durP1;ratioP1;P1;durP2;ratioP2;P2;SDS_P1;SDS_P2;PMS_P1;PMS_P2;Temp;Humidity;BMP_temperature;BMP_pressure;BME280_temperature;BME280_humidity;BME280_pressure;Samples;Min_cycle;Max_cycle;Signal;HPM_P1;HPM_P2
2021/09/05 04:31:45;;;;;;;10.27;8.40;;;11.40;99.90;;;;;;5608265;23;20517;-77
2021/09/05 04:34:11;;;;;;;10.00;7.70;;;11.40;99.90;;;;;;5032411;28;20409;-76
2021/09/05 04:36:37;;;;;;;8.97;7.80;;;11.40;99.90;;;;;;5032948;28;20427;-78
2021/09/05 04:39:02;;;;;;;11.17;7.20;;;11.40;99.90;;;;;;5024928;28;20216;-78
2021/09/05 04:41:28;;;;;;;9.53;8.00;;;11.40;99.90;;;;;;5034064;28;20205;-78
2021/09/05 04:43:53;;;;;;;9.10;7.17;;;11.50;99.90;;;;;;5033936;28;20185;-78
2021/09/05 04:46:19;;;;;;;10.30;7.73;;;11.50;99.90;;;;;;5016043;28;20198;-78
2021/09/05 04:48:45;;;;;;;10.83;7.90;;;11.50;99.90;;;;;;5033403;28;20551;-78
2021/09/05 04:51:10;;;;;;;12.43;8.90;;;11.50;99.90;;;;;;5033810;28;20221;-78
2021/09/05 04:53:36;;;;;;;9.97;8.40;;;11.50;99.90;;;;;;5033592;28;20186;-78
2021/09/05 04:56:02;;;;;;;13.53;8.40;;;11.50;99.90;;;;;;5033608;28;20182;-78
2021/09/05 04:58:27;;;;;;;13.50;8.90;;;11.50;99.90;;;;;;5033386;28;20208;-78
2021/09/05 05:00:53;;;;;;;9.23;8.27;;;11.50;99.90;;;;;;5033194;28;20686;-78
2021/09/05 05:03:18;;;;;;;11.27;9.07;;;11.50;99.90;;;;;;5016171;28;20712;-78
2021/09/05 05:05:44;;;;;;;12.27;8.70;;;11.60;99.90;;;;;;5033393;28;20178;-78
2021/09/05 05:08:10;;;;;;;8.90;8.00;;;11.60;99.90;;;;;;5033452;28;20186;-78
2021/09/05 05:10:35;;;;;;;9.00;8.10;;;11.60;99.90;;;;;;5034042;28;20293;-78
2021/09/05 05:13:01;;;;;;;11.63;8.23;;;11.60;99.90;;;;;;5033438;28;20179;-78
2021/09/05 05:15:27;;;;;;;12.63;8.83;;;11.60;99.90;;;;;;5033722;28;20297;-78
2021/09/05 05:17:54;;;;;;;16.57;9.53;;;11.60;99.90;;;;;;5033440;28;20202;-78
2021/09/05 05:20:19;;;;;;;12.47;9.10;;;11.70;99.90;;;;;;5033432;28;20590;-78
2021/09/05 05:22:46;;;;;;;11.43;8.90;;;11.70;99.90;;;;;;5033300;28;20446;-78
2021/09/05 05:25:12;;;;;;;10.87;9.03;;;11.80;99.90;;;;;;5015582;28;20223;-78
2021/09/05 05:27:37;;;;;;;9.67;8.40;;;11.90;99.90;;;;;;5033333;28;20980;-78
2021/09/05 05:30:04;;;;;;;10.00;8.87;;;11.90;99.90;;;;;;5033165;28;20215;-78
2021/09/05 05:32:30;;;;;;;12.67;9.40;;;12.10;99.90;;;;;;5033024;28;20209;-78
2021/09/05 05:34:55;;;;;;;10.90;9.33;;;12.20;99.90;;;;;;5032978;28;20413;-78
2021/09/05 05:37:21;;;;;;;11.40;8.73;;;12.20;99.90;;;;;;5033143;28;20201;-78
2021/09/05 05:39:46;;;;;;;14.27;9.60;;;12.30;99.90;;;;;;5032985;28;20179;-78
2021/09/05 05:42:12;;;;;;;11.10;10.00;;;12.30;99.90;;;;;;5032953;28;20202;-78
2021/09/05 05:44:37;;;;;;;10.90;9.00;;;12.40;99.90;;;;;;5032737;28;20182;-78
2021/09/05 05:47:03;;;;;;;12.63;8.83;;;12.60;99.90;;;;;;5032541;28;20185;-78
2021/09/05 05:49:29;;;;;;;11.90;8.87;;;12.70;99.90;;;;;;5015094;28;20181;-78
2021/09/05 05:51:54;;;;;;;15.70;10.00;;;12.90;99.90;;;;;;5014925;28;20666;-78
2021/09/05 05:54:20;;;;;;;12.27;9.37;;;13.00;99.90;;;;;;5032272;28;20173;-78
2021/09/05 05:56:46;;;;;;;14.03;10.70;;;13.30;99.90;;;;;;5032693;28;20178;-78
2021/09/05 05:59:11;;;;;;;13.70;9.70;;;13.60;99.90;;;;;;5032463;28;20205;-78
2021/09/05 06:01:41;;;;;;;12.17;8.87;;;13.80;99.90;;;;;;5032382;28;20206;-78
2021/09/05 06:04:08;;;;;;;11.13;8.70;;;14.00;99.90;;;;;;5033834;28;20174;-78
2021/09/05 06:06:34;;;;;;;17.47;10.87;;;14.20;99.90;;;;;;5034536;28;20409;-79
2021/09/05 06:09:00;;;;;;;18.33;9.77;;;14.60;99.90;;;;;;5034388;28;20486;-79
2021/09/05 06:11:27;;;;;;;10.37;9.27;;;14.90;99.90;;;;;;5037599;28;20574;-78
2021/09/05 06:13:53;;;;;;;13.77;9.83;;;15.40;99.90;;;;;;5037327;28;20747;-79
2021/09/05 06:16:18;;;;;;;11.23;9.60;;;16.00;99.90;;;;;;5036360;28;20420;-78
2021/09/05 06:18:44;;;;;;;15.27;8.93;;;16.40;99.90;;;;;;5036542;28;20216;-78
2021/09/05 06:21:09;;;;;;;13.00;9.50;;;16.80;99.90;;;;;;5036299;28;20251;-79
2021/09/05 06:23:35;;;;;;;10.67;8.80;;;17.20;99.90;;;;;;5036877;28;20178;-79
2021/09/05 06:26:00;;;;;;;10.10;8.67;;;17.90;99.90;;;;;;5036186;28;20304;-79
2021/09/05 06:28:26;;;;;;;9.27;7.53;;;18.50;99.90;;;;;;5036476;28;20667;-79
2021/09/05 06:30:51;;;;;;;10.40;9.00;;;19.00;99.90;;;;;;5036408;28;20201;-79
2021/09/05 06:33:17;;;;;;;11.17;9.00;;;19.50;99.90;;;;;;5036377;28;20213;-79
2021/09/05 06:35:43;;;;;;;11.13;9.00;;;20.00;99.90;;;;;;5037162;28;20184;-81
2021/09/05 06:38:08;;;;;;;14.07;9.37;;;20.40;99.90;;;;;;5038240;28;20214;-82
2021/09/05 06:40:34;;;;;;;11.10;8.90;;;20.80;99.90;;;;;;5038236;28;20205;-81
2021/09/05 06:42:59;;;;;;;10.87;8.20;;;20.90;99.90;;;;;;5036587;28;20300;-79
2021/09/05 06:45:25;;;;;;;15.93;10.03;;;21.30;99.90;;;;;;5037473;28;20174;-79
2021/09/05 06:47:51;;;;;;;10.70;8.40;;;21.40;99.90;;;;;;5037096;28;20170;-79
2021/09/05 06:50:16;;;;;;;9.07;7.93;;;21.60;99.90;;;;;;5037547;28;20205;-79
2021/09/05 06:52:42;;;;;;;15.97;8.40;;;21.60;99.90;;;;;;5036908;28;20228;-79
2021/09/05 06:55:08;;;;;;;13.30;9.63;;;21.60;99.90;;;;;;5036692;28;20176;-79
2021/09/05 06:57:34;;;;;;;8.70;7.80;;;21.90;99.90;;;;;;5037102;28;20178;-79
2021/09/05 06:59:59;;;;;;;10.37;8.80;;;22.00;99.90;;;;;;5036576;28;20412;-79
2021/09/05 07:02:25;;;;;;;15.73;9.20;;;22.00;99.90;;;;;;5036601;28;20292;-80
2021/09/05 07:04:51;;;;;;;10.70;9.50;;;22.40;99.90;;;;;;5036395;28;20553;-79
2021/09/05 07:07:17;;;;;;;13.10;8.70;;;22.50;99.90;;;;;;5036433;28;20178;-80
2021/09/05 07:09:42;;;;;;;10.13;8.50;;;22.70;99.90;;;;;;5036590;28;20482;-79
2021/09/05 07:12:09;;;;;;;10.03;8.63;;;22.70;99.90;;;;;;5036417;28;20194;-78
2021/09/05 07:14:34;;;;;;;11.53;8.90;;;23.00;99.90;;;;;;5036018;28;20232;-80
2021/09/05 07:17:00;;;;;;;8.57;7.73;;;23.30;99.90;;;;;;5036115;28;20496;-79
2021/09/05 07:19:26;;;;;;;8.87;8.00;;;23.30;99.90;;;;;;5036108;28;20220;-79
2021/09/05 07:21:51;;;;;;;10.87;9.03;;;23.40;99.90;;;;;;5037025;28;20276;-79
2021/09/05 07:24:17;;;;;;;13.27;9.00;;;23.60;99.90;;;;;;5036401;28;20549;-79
2021/09/05 07:26:42;;;;;;;9.80;8.40;;;23.70;99.90;;;;;;5037389;28;20199;-79
2021/09/05 07:29:08;;;;;;;12.40;9.27;;;23.60;99.90;;;;;;5037461;28;20244;-79
2021/09/05 07:31:34;;;;;;;13.87;8.87;;;23.60;99.90;;;;;;5037679;28;20702;-79
2021/09/05 07:33:59;;;;;;;9.33;8.43;;;23.40;99.90;;;;;;5037564;28;20240;-79
2021/09/05 07:36:25;;;;;;;9.67;8.63;;;23.40;99.90;;;;;;5037514;28;20261;-79
2021/09/05 07:38:51;;;;;;;13.80;7.80;;;23.50;99.90;;;;;;5037447;28;20210;-79
2021/09/05 07:41:17;;;;;;;10.77;8.40;;;23.50;99.90;;;;;;5036784;28;20567;-80
2021/09/05 07:43:43;;;;;;;11.33;8.93;;;23.80;99.90;;;;;;5038078;28;20500;-79
2021/09/05 07:46:08;;;;;;;12.10;7.97;;;24.10;99.90;;;;;;5038489;28;20188;-79
2021/09/05 07:48:34;;;;;;;8.77;7.80;;;24.10;99.90;;;;;;5037913;28;20620;-80
2021/09/05 07:51:00;;;;;;;11.30;8.60;;;24.30;99.90;;;;;;5037969;28;20197;-79
2021/09/05 07:53:25;;;;;;;9.10;8.20;;;24.40;99.90;;;;;;5037209;28;20186;-79
2021/09/05 07:55:51;;;;;;;9.90;8.87;;;24.70;99.90;;;;;;5036596;28;20642;-79
2021/09/05 07:58:16;;;;;;;10.33;9.23;;;24.80;99.90;;;;;;5036866;28;20310;-80
2021/09/05 08:00:42;;;;;;;8.10;6.77;;;24.90;99.90;;;;;;5036992;28;20194;-80
2021/09/05 08:03:08;;;;;;;12.43;8.20;;;25.00;99.90;;;;;;5037076;28;20181;-79
2021/09/05 08:05:34;;;;;;;8.10;7.30;;;25.00;99.90;;;;;;5037335;28;20253;-80
2021/09/05 08:07:59;;;;;;;8.93;8.03;;;25.20;99.90;;;;;;5036268;28;20181;-80
2021/09/05 08:10:25;;;;;;;8.27;7.47;;;25.40;99.90;;;;;;5035643;28;20178;-81
2021/09/05 08:12:52;;;;;;;10.27;7.77;;;25.40;99.90;;;;;;5034826;28;20209;-81
2021/09/05 08:15:17;;;;;;;11.50;7.30;;;25.80;99.90;;;;;;5035298;28;20177;-81
2021/09/05 08:17:43;;;;;;;7.53;6.73;;;26.00;99.90;;;;;;5035523;28;20412;-81
2021/09/05 08:20:10;;;;;;;7.90;7.00;;;25.90;99.90;;;;;;5017352;28;20174;-81
2021/09/05 08:22:35;;;;;;;7.23;6.33;;;26.20;99.90;;;;;;5034887;28;20241;-81
2021/09/05 08:25:01;;;;;;;9.50;7.07;;;26.40;99.90;;;;;;5034765;28;20421;-81
2021/09/05 08:27:26;;;;;;;10.60;6.70;;;26.40;99.90;;;;;;5035033;28;20256;-80
2021/09/05 08:29:52;;;;;;;8.40;6.70;;;26.60;99.90;;;;;;5017172;28;20200;-81
2021/09/05 08:32:18;;;;;;;7.27;6.60;;;26.50;99.90;;;;;;5033394;28;20689;-81
2021/09/05 08:34:43;;;;;;;7.00;6.30;;;26.50;99.90;;;;;;5034537;28;20185;-82
2021/09/05 08:37:09;;;;;;;8.93;8.03;;;26.40;99.90;;;;;;5034212;28;20706;-81
2021/09/05 08:39:34;;;;;;;9.07;7.03;;;26.70;99.90;;;;;;5017367;28;20206;-81
2021/09/05 08:42:00;;;;;;;6.43;5.70;;;26.80;99.90;;;;;;5034244;28;20566;-81
2021/09/05 08:44:26;;;;;;;9.73;7.53;;;26.60;99.90;;;;;;5034931;28;20174;-81
2021/09/05 08:46:53;;;;;;;8.23;7.20;;;26.90;99.90;;;;;;5036186;28;20212;-81
2021/09/05 08:49:26;;;;;;;8.30;6.83;;;26.70;99.90;;;;;;5018235;28;20551;-81
2021/09/05 08:51:52;;;;;;;8.43;6.27;;;26.80;99.90;;;;;;5035147;28;20483;-82
2021/09/05 08:54:18;;;;;;;8.07;7.27;;;27.00;99.90;;;;;;5035423;28;20413;-81
2021/09/05 08:56:48;;;;;;;8.17;6.20;;;27.40;99.90;;;;;;5018358;28;20460;-82
2021/09/05 08:59:13;;;;;;;9.87;6.90;;;27.40;99.90;;;;;;5019173;28;20210;-81
2021/09/05 09:01:50;;;;;;;6.97;6.27;;;27.40;99.90;;;;;;5038225;28;20429;-82
2021/09/05 09:04:15;;;;;;;8.50;6.77;;;27.70;99.90;;;;;;5036563;28;20205;-81
2021/09/05 09:06:41;;;;;;;8.63;7.70;;;27.90;99.90;;;;;;5035065;28;20448;-80
2021/09/05 09:09:08;;;;;;;9.13;6.40;;;28.20;99.90;;;;;;5035019;28;20201;-81
2021/09/05 09:11:55;;;;;;;7.10;6.40;;;28.10;99.90;;;;;;5035219;28;20433;-81
2021/09/05 09:14:42;;;;;;;7.40;6.30;;;28.40;99.90;;;;;;5035417;28;20419;-80
2021/09/05 09:17:09;;;;;;;6.90;6.30;;;28.40;99.90;;;;;;5034084;28;20820;-80
2021/09/05 09:19:35;;;;;;;9.60;6.57;;;28.60;99.90;;;;;;5033902;28;20456;-81
2021/09/05 09:22:06;;;;;;;6.93;6.33;;;28.50;99.90;;;;;;5033439;28;20457;-81
2021/09/05 09:24:42;;;;;;;8.40;5.83;;;28.80;99.90;;;;;;5033581;28;20444;-80
2021/09/05 09:27:09;;;;;;;6.60;5.57;;;29.00;99.90;;;;;;5034708;28;20413;-80
2021/09/05 09:29:36;;;;;;;6.20;5.60;;;29.00;99.90;;;;;;5033637;28;20789;-82
2021/09/05 09:32:06;;;;;;;6.47;5.87;;;29.30;99.90;;;;;;5034409;28;20458;-81
2021/09/05 09:34:39;;;;;;;10.20;6.10;;;29.50;99.90;;;;;;5034589;28;20971;-81
2021/09/05 09:37:20;;;;;;;6.67;6.07;;;29.50;99.90;;;;;;5034971;28;20665;-80
2021/09/05 09:39:56;;;;;;;6.00;5.53;;;29.70;99.90;;;;;;5033853;28;20559;-80
2021/09/05 09:42:37;;;;;;;5.57;5.17;;;29.80;99.90;;;;;;5034469;28;20436;-80
2021/09/05 09:45:08;;;;;;;7.80;5.63;;;29.80;99.90;;;;;;5034308;28;20447;-81
2021/09/05 09:47:45;;;;;;;6.33;5.73;;;29.20;99.90;;;;;;5033857;28;20449;-80
2021/09/05 09:50:17;;;;;;;8.43;5.90;;;28.80;99.90;;;;;;5033588;28;20436;-80
2021/09/05 09:52:46;;;;;;;6.07;5.40;;;28.30;99.90;;;;;;5016703;28;20428;-81
2021/09/05 09:55:12;;;;;;;7.10;6.40;;;28.00;99.90;;;;;;5033684;28;20936;-81
2021/09/05 09:57:38;;;;;;;5.70;5.30;;;27.50;99.90;;;;;;5034230;28;20447;-80
2021/09/05 10:00:06;;;;;;;6.37;5.33;;;27.50;99.90;;;;;;5015956;28;20799;-80
2021/09/05 10:02:35;;;;;;;5.50;5.00;;;27.60;99.90;;;;;;5015244;28;20590;-80
2021/09/05 10:05:01;;;;;;;5.27;4.87;;;27.50;99.90;;;;;;5033327;28;20408;-80
2021/09/05 10:07:32;;;;;;;6.63;5.20;;;27.90;99.90;;;;;;5015297;28;20420;-81
2021/09/05 10:10:01;;;;;;;5.87;5.27;;;28.30;99.90;;;;;;5032012;28;20182;-80
2021/09/05 10:12:28;;;;;;;6.77;5.00;;;28.00;99.90;;;;;;5032897;28;20433;-80
2021/09/05 10:14:55;;;;;;;7.90;5.37;;;27.80;99.90;;;;;;5032868;28;20421;-80
2021/09/05 10:17:22;;;;;;;6.13;5.63;;;27.60;99.90;;;;;;5032434;28;20417;-79
2021/09/05 10:19:52;;;;;;;4.77;4.37;;;27.20;99.90;;;;;;5032114;28;20471;-81
2021/09/05 10:22:23;;;;;;;6.10;5.60;;;26.90;99.90;;;;;;5032272;28;20425;-80
2021/09/05 10:24:51;;;;;;;6.40;5.23;;;26.90;99.90;;;;;;5032665;28;20412;-80
2021/09/05 10:27:31;;;;;;;4.70;4.30;;;27.30;99.90;;;;;;5014406;28;20428;-80
2021/09/05 10:30:11;;;;;;;5.47;4.97;;;28.30;99.90;;;;;;5032232;28;20779;-80
2021/09/05 10:32:51;;;;;;;5.73;4.27;;;29.10;99.90;;;;;;5032304;28;20464;-81
2021/09/05 10:35:30;;;;;;;5.73;4.00;;;29.20;99.90;;;;;;5033063;28;20419;-80
2021/09/05 10:38:08;;;;;;;5.63;4.60;;;29.80;99.90;;;;;;5032290;28;20460;-80
2021/09/05 10:40:41;;;;;;;5.00;4.50;;;29.90;99.90;;;;;;5015066;28;20440;-80
2021/09/05 10:43:07;;;;;;;5.30;4.40;;;29.90;99.90;;;;;;5032496;28;20817;-79
2021/09/05 10:45:40;;;;;;;5.23;4.33;;;29.60;99.90;;;;;;5032677;28;20503;-80
2021/09/05 10:48:34;;;;;;;5.30;4.47;;;29.60;99.90;;;;;;5014826;28;20219;-79
2021/09/05 10:51:07;;;;;;;4.60;4.30;;;29.40;99.90;;;;;;5032976;28;20424;-80
2021/09/05 10:53:55;;;;;;;6.27;5.57;;;29.10;99.90;;;;;;5032769;28;20808;-80
2021/09/05 10:56:23;;;;;;;7.67;4.07;;;29.00;99.90;;;;;;5034844;28;20420;-80
2021/09/05 10:59:24;;;;;;;5.10;4.60;;;28.90;99.90;;;;;;5035479;28;20455;-80
2021/09/05 11:01:49;;;;;;;5.13;4.63;;;29.00;99.90;;;;;;5002454;28;20448;-81
2021/09/05 11:04:16;;;;;;;4.53;4.13;;;29.10;99.90;;;;;;5035898;28;20416;-80
2021/09/05 11:06:43;;;;;;;5.70;5.20;;;29.30;99.90;;;;;;5036166;28;20163;-80
2021/09/05 11:09:26;;;;;;;6.13;5.20;;;28.70;99.90;;;;;;5035727;28;20786;-81
2021/09/05 11:12:14;;;;;;;4.97;4.33;;;28.40;99.90;;;;;;5035444;28;20424;-80
2021/09/05 11:14:46;;;;;;;6.13;5.53;;;28.40;99.90;;;;;;5035865;28;20416;-81
2021/09/05 11:17:19;;;;;;;5.40;4.90;;;28.00;99.90;;;;;;5017548;28;20424;-79
2021/09/05 11:20:10;;;;;;;4.70;4.30;;;27.40;99.90;;;;;;5035254;28;20478;-80
2021/09/05 11:22:38;;;;;;;5.27;4.20;;;27.20;99.90;;;;;;5035351;28;20512;-80
2021/09/05 11:25:11;;;;;;;6.20;5.60;;;27.80;99.90;;;;;;5035137;28;20451;-81
2021/09/05 11:27:48;;;;;;;5.80;4.97;;;28.10;99.90;;;;;;5035413;28;20419;-79
2021/09/05 11:30:14;;;;;;;5.60;5.10;;;27.90;99.90;;;;;;5036775;28;20416;-80
2021/09/05 11:32:40;;;;;;;6.00;4.60;;;27.90;99.90;;;;;;5037196;28;21019;-79
2021/09/05 11:35:07;;;;;;;7.10;5.43;;;27.90;99.90;;;;;;5036047;28;20400;-81
2021/09/05 11:37:36;;;;;;;7.07;6.33;;;28.20;99.90;;;;;;5035387;28;20767;-80
2021/09/05 11:40:09;;;;;;;6.63;5.80;;;28.30;99.90;;;;;;5036729;28;20417;-80
2021/09/05 11:42:36;;;;;;;5.00;4.50;;;28.30;99.90;;;;;;5038155;28;20416;-81
2021/09/05 11:45:11;;;;;;;6.50;5.83;;;28.40;99.90;;;;;;5038220;28;20459;-81
2021/09/05 11:47:38;;;;;;;6.30;4.67;;;28.40;99.90;;;;;;5038057;28;20408;-81
2021/09/05 11:50:05;;;;;;;6.20;5.70;;;28.60;99.90;;;;;;5037234;28;20408;-81
2021/09/05 11:52:36;;;;;;;6.17;5.57;;;28.40;99.90;;;;;;5037712;28;20792;-81
2021/09/05 11:55:05;;;;;;;8.27;5.97;;;28.60;99.90;;;;;;5037958;28;20404;-80
2021/09/05 11:57:32;;;;;;;5.87;5.37;;;28.90;99.90;;;;;;5037015;28;20543;-80
2021/09/05 12:00:00;;;;;;;7.03;6.33;;;28.90;99.90;;;;;;5037270;28;20836;-80
2021/09/05 12:02:27;;;;;;;7.13;4.87;;;28.70;99.90;;;;;;5019904;28;20968;-80
2021/09/05 12:04:53;;;;;;;5.07;4.57;;;28.70;99.90;;;;;;5037830;28;21059;-80
2021/09/05 12:07:19;;;;;;;6.20;4.30;;;28.70;99.90;;;;;;5040667;28;20445;-80
2021/09/05 12:09:45;;;;;;;5.80;4.97;;;28.70;99.90;;;;;;5023542;28;20178;-81
2021/09/05 12:12:10;;;;;;;6.63;4.83;;;28.60;99.90;;;;;;5041755;28;20224;-81
2021/09/05 12:14:38;;;;;;;6.30;5.40;;;28.50;99.90;;;;;;5040276;28;20178;-81
2021/09/05 12:17:26;;;;;;;5.90;4.63;;;28.40;99.90;;;;;;5039736;28;20181;-81
2021/09/05 12:20:03;;;;;;;6.00;4.20;;;28.70;99.90;;;;;;5039959;28;20510;-81
2021/09/05 12:22:45;;;;;;;6.13;4.60;;;28.80;99.90;;;;;;5039497;28;20420;-80
2021/09/05 12:25:20;;;;;;;5.20;4.33;;;28.50;99.90;;;;;;5018652;28;20428;-82
2021/09/05 12:27:57;;;;;;;4.87;4.37;;;28.20;99.90;;;;;;5036823;28;20773;-82
2021/09/05 12:30:25;;;;;;;6.43;4.50;;;27.90;99.90;;;;;;5036918;28;20409;-82
2021/09/05 12:33:14;;;;;;;4.83;4.43;;;27.70;99.90;;;;;;5019251;28;20448;-82
2021/09/05 12:35:45;;;;;;;4.63;4.23;;;27.60;99.90;;;;;;5037502;28;20462;-82
2021/09/05 12:38:13;;;;;;;4.63;4.20;;;27.50;99.90;;;;;;5037192;28;20464;-82
2021/09/05 12:40:46;;;;;;;6.10;4.43;;;27.50;99.90;;;;;;5037793;28;20433;-82
2021/09/05 12:43:13;;;;;;;5.80;4.70;;;27.50;99.90;;;;;;5036973;28;20522;-81
2021/09/05 12:45:51;;;;;;;4.30;3.90;;;27.50;99.90;;;;;;5036846;28;20480;-83
2021/09/05 12:48:22;;;;;;;5.00;4.50;;;27.40;99.90;;;;;;5037176;28;20400;-83
2021/09/05 12:51:02;;;;;;;5.60;4.40;;;27.30;99.90;;;;;;5037575;28;20428;-82
2021/09/05 12:53:28;;;;;;;5.20;4.70;;;27.00;99.90;;;;;;5036831;28;20420;-81
2021/09/05 12:55:54;;;;;;;4.60;4.20;;;27.00;99.90;;;;;;5036893;28;20413;-82
2021/09/05 12:58:20;;;;;;;4.83;4.23;;;26.90;99.90;;;;;;5035909;28;20456;-82
2021/09/05 13:00:45;;;;;;;5.00;3.80;;;26.90;99.90;;;;;;5036044;28;20483;-82
2021/09/05 13:03:12;;;;;;;4.97;4.57;;;26.80;99.90;;;;;;5036928;28;20170;-82
2021/09/05 13:05:38;;;;;;;4.30;4.00;;;26.80;99.90;;;;;;5037389;28;20170;-82
2021/09/05 13:08:05;;;;;;;5.00;4.60;;;26.90;99.90;;;;;;5036453;28;20412;-81
2021/09/05 13:10:33;;;;;;;5.77;4.20;;;27.00;99.90;;;;;;5036929;28;20436;-82
2021/09/05 13:12:58;;;;;;;7.80;4.03;;;26.90;99.90;;;;;;5036922;28;20416;-82
2021/09/05 13:15:25;;;;;;;5.43;4.40;;;26.80;99.90;;;;;;5036689;28;20413;-82
2021/09/05 13:17:51;;;;;;;3.83;3.53;;;26.80;99.90;;;;;;5036069;28;20579;-82
2021/09/05 13:20:17;;;;;;;6.47;4.10;;;26.80;99.90;;;;;;5019587;28;20417;-83
2021/09/05 13:22:43;;;;;;;5.17;4.67;;;26.90;99.90;;;;;;5036985;28;20409;-82
2021/09/05 13:25:09;;;;;;;3.97;3.67;;;27.00;99.90;;;;;;5036034;28;20952;-82
2021/09/05 13:27:35;;;;;;;4.23;3.93;;;27.00;99.90;;;;;;5036992;28;20178;-82
2021/09/05 13:30:07;;;;;;;4.93;4.53;;;26.90;99.90;;;;;;5037447;28;20539;-81
2021/09/05 13:32:33;;;;;;;4.40;4.00;;;26.80;99.90;;;;;;5036524;28;20933;-82
2021/09/05 13:34:58;;;;;;;3.77;3.57;;;26.70;99.90;;;;;;5036909;28;20413;-82
2021/09/05 13:37:24;;;;;;;4.30;4.00;;;26.60;99.90;;;;;;5019267;28;20508;-82
2021/09/05 13:39:51;;;;;;;5.93;4.50;;;26.70;99.90;;;;;;5019435;28;20205;-83
2021/09/05 13:42:17;;;;;;;3.80;3.50;;;26.70;99.90;;;;;;5037572;28;20193;-82
2021/09/05 13:44:42;;;;;;;5.87;3.60;;;26.70;99.90;;;;;;5037656;28;20443;-83
2021/09/05 13:47:08;;;;;;;4.70;4.37;;;26.50;99.90;;;;;;5037214;28;20409;-82
2021/09/05 13:49:37;;;;;;;5.13;4.50;;;26.40;99.90;;;;;;5037212;28;20173;-81
2021/09/05 13:52:03;;;;;;;5.43;4.93;;;26.30;99.90;;;;;;5036983;28;20194;-82
2021/09/05 13:54:29;;;;;;;5.53;3.80;;;26.30;99.90;;;;;;5036626;28;20943;-79
2021/09/05 13:56:55;;;;;;;3.47;3.20;;;26.30;99.90;;;;;;5034550;28;20413;-79
2021/09/05 13:59:20;;;;;;;4.03;3.70;;;26.30;99.90;;;;;;5033904;28;20264;-79
2021/09/05 14:01:46;;;;;;;4.53;4.13;;;26.40;99.90;;;;;;5032664;28;20669;-79
2021/09/05 14:04:11;;;;;;;4.90;4.57;;;26.30;99.90;;;;;;5014585;28;20174;-79
2021/09/05 14:06:37;;;;;;;4.90;4.50;;;26.30;99.90;;;;;;5033502;28;20162;-79
2021/09/05 14:09:02;;;;;;;5.17;3.83;;;26.40;99.90;;;;;;5015896;28;20571;-79
2021/09/05 14:11:28;;;;;;;3.73;3.43;;;26.40;99.90;;;;;;5015374;28;20761;-79
2021/09/05 14:13:54;;;;;;;6.47;3.80;;;26.40;99.90;;;;;;5033456;28;20170;-80
2021/09/05 14:16:20;;;;;;;3.80;3.50;;;26.40;99.90;;;;;;5032892;28;20180;-79
2021/09/05 14:18:45;;;;;;;4.17;3.50;;;26.40;99.90;;;;;;5031921;28;20205;-78
2021/09/05 14:21:11;;;;;;;7.23;4.03;;;26.30;99.90;;;;;;5031810;28;20273;-79
2021/09/05 14:23:37;;;;;;;4.60;4.20;;;26.30;99.90;;;;;;5031823;28;20646;-79
2021/09/05 14:26:05;;;;;;;3.60;3.40;;;26.20;99.90;;;;;;5031832;28;20173;-78
2021/09/05 14:28:38;;;;;;;3.90;3.37;;;26.20;99.90;;;;;;5031824;28;20677;-79
2021/09/05 14:31:11;;;;;;;3.77;3.40;;;26.10;99.90;;;;;;5034003;28;20448;-79
2021/09/05 14:49:47;;;;;;;4.77;4.37;;;26.00;99.90;;;;;;5040601;28;20403;-80
2021/09/05 14:55:03;;;;;;;3.63;3.33;;;26.10;99.90;;;;;;5039537;28;20416;-80
2021/09/05 14:57:29;;;;;;;4.63;3.90;;;26.00;99.90;;;;;;5040227;28;20417;-81
2021/09/05 14:59:57;;;;;;;5.00;3.50;;;26.00;99.90;;;;;;5039212;28;20463;-80
2021/09/05 15:02:33;;;;;;;4.60;3.67;;;25.90;99.90;;;;;;5037621;28;20197;-79
2021/09/05 15:12:57;;;;;;;6.37;4.07;;;25.80;99.90;;;;;;5037704;28;20466;-79
2021/09/05 15:15:22;;;;;;;4.00;3.70;;;25.70;99.90;;;;;;5036888;28;20923;-80
2021/09/05 15:17:48;;;;;;;3.80;3.47;;;25.70;99.90;;;;;;5037343;28;20484;-79
2021/09/05 15:20:15;;;;;;;4.60;3.00;;;25.70;99.90;;;;;;5037276;28;20170;-79
2021/09/05 15:22:42;;;;;;;8.50;3.80;;;25.60;99.90;;;;;;5039082;28;20205;-80
2021/09/05 15:25:08;;;;;;;3.93;3.53;;;25.60;99.90;;;;;;5043250;28;20412;-81
2021/09/05 15:27:40;;;;;;;3.67;3.40;;;25.60;99.90;;;;;;5043056;28;20427;-81
2021/09/05 15:30:21;;;;;;;3.70;3.40;;;25.70;99.90;;;;;;5043313;28;20512;-81
2021/09/05 15:36:00;;;;;;;4.60;3.80;;;25.60;99.90;;;;;;5044864;28;20526;-81
2021/09/05 15:54:20;;;;;;;3.83;3.50;;;25.50;99.90;;;;;;5035901;28;20443;-77
2021/09/05 15:56:48;;;;;;;4.43;4.07;;;25.40;99.90;;;;;;5017713;28;20504;-81
2021/09/05 16:17:22;;;;;;;4.07;3.50;;;25.10;99.90;;;;;;5036399;28;20438;-81
2021/09/05 16:19:48;;;;;;;4.43;4.03;;;25.10;99.90;;;;;;5036379;28;20569;-81
2021/09/05 16:22:14;;;;;;;4.87;3.77;;;25.10;99.90;;;;;;5036554;28;20201;-81
2021/09/05 16:24:42;;;;;;;6.50;3.93;;;25.00;99.90;;;;;;5036404;28;20260;-81
2021/09/05 16:27:10;;;;;;;4.33;3.93;;;25.00;99.90;;;;;;5036420;28;20170;-81
2021/09/05 16:29:47;;;;;;;4.10;3.70;;;25.00;99.90;;;;;;5036252;28;20413;-81
2021/09/05 16:32:16;;;;;;;3.73;3.23;;;24.90;99.90;;;;;;5035800;28;20803;-82
2021/09/05 16:34:56;;;;;;;3.83;3.53;;;24.90;99.90;;;;;;5037207;28;20404;-81
2021/09/05 16:42:32;;;;;;;7.93;3.90;;;24.80;99.90;;;;;;5036636;28;20632;-81
2021/09/05 16:44:57;;;;;;;5.17;3.90;;;24.80;99.90;;;;;;5019015;28;20432;-81
2021/09/05 16:47:23;;;;;;;3.60;3.30;;;24.80;99.90;;;;;;5036698;28;20235;-80
2021/09/05 16:49:48;;;;;;;5.30;3.70;;;24.70;99.90;;;;;;5036545;28;20658;-80
2021/09/05 16:52:14;;;;;;;5.17;4.60;;;24.60;99.90;;;;;;5036324;28;20217;-80
2021/09/05 16:54:39;;;;;;;4.87;4.10;;;24.60;99.90;;;;;;5036292;28;20227;-81
2021/09/05 16:57:05;;;;;;;9.60;4.47;;;24.60;99.90;;;;;;5035946;28;20178;-81
2021/09/05 16:59:31;;;;;;;4.43;4.07;;;24.60;99.90;;;;;;5036435;28;20610;-81
2021/09/05 17:01:56;;;;;;;5.63;3.47;;;24.50;99.90;;;;;;5036515;28;20194;-81
2021/09/05 17:04:22;;;;;;;4.27;3.40;;;24.50;99.90;;;;;;5036884;28;20174;-82
2021/09/05 17:06:47;;;;;;;5.20;4.60;;;24.50;99.90;;;;;;5036671;28;20443;-81
2021/09/05 17:09:13;;;;;;;4.33;3.97;;;24.40;99.90;;;;;;5035988;28;20658;-80
2021/09/05 17:11:39;;;;;;;5.20;4.70;;;24.40;99.90;;;;;;5015848;28;20260;-82
2021/09/05 17:14:04;;;;;;;5.43;4.67;;;24.30;99.90;;;;;;5033479;28;20232;-83
2021/09/05 17:16:30;;;;;;;6.00;4.03;;;24.30;99.90;;;;;;5033955;28;20304;-82
2021/09/05 17:18:55;;;;;;;4.37;3.97;;;24.20;99.90;;;;;;5033587;28;20736;-82
2021/09/05 17:21:22;;;;;;;4.77;4.37;;;24.10;99.90;;;;;;5035372;28;20658;-82
2021/09/05 17:23:48;;;;;;;7.17;4.30;;;24.00;99.90;;;;;;5034832;28;20595;-82
2021/09/05 17:26:14;;;;;;;4.93;4.43;;;24.00;99.90;;;;;;5036041;28;20428;-82
2021/09/05 17:28:39;;;;;;;5.27;4.50;;;23.90;99.90;;;;;;5037362;28;20405;-82
2021/09/05 17:31:07;;;;;;;6.00;4.83;;;23.80;99.90;;;;;;5036981;28;20208;-82
2021/09/05 17:33:33;;;;;;;5.27;4.50;;;23.70;99.90;;;;;;5019076;28;20178;-82
2021/09/05 17:35:59;;;;;;;5.47;4.90;;;23.60;99.90;;;;;;5036766;28;20924;-81
2021/09/05 17:38:24;;;;;;;6.70;5.70;;;23.30;99.90;;;;;;5036124;28;20270;-82
2021/09/05 17:40:50;;;;;;;5.07;4.57;;;23.10;99.90;;;;;;5016823;28;20194;-82
2021/09/05 17:43:16;;;;;;;6.50;5.27;;;22.80;99.90;;;;;;5035438;28;20228;-82
2021/09/05 17:45:42;;;;;;;4.63;4.03;;;22.60;99.90;;;;;;5034721;28;20174;-82
2021/09/05 17:48:07;;;;;;;7.00;4.10;;;22.30;99.90;;;;;;5035184;28;20171;-82
2021/09/05 17:50:33;;;;;;;5.90;3.80;;;22.00;99.90;;;;;;5017978;28;20455;-82
2021/09/05 17:52:58;;;;;;;5.00;4.40;;;21.80;99.90;;;;;;5034781;28;20174;-82
2021/09/05 17:55:24;;;;;;;5.13;4.70;;;21.60;99.90;;;;;;5035955;28;20178;-82
2021/09/05 17:57:50;;;;;;;7.50;5.33;;;21.40;99.90;;;;;;5035850;28;20205;-82
2021/09/05 18:00:15;;;;;;;7.83;6.73;;;21.20;99.90;;;;;;5037289;28;20174;-82
2021/09/05 18:02:41;;;;;;;11.50;7.77;;;21.00;99.90;;;;;;5036518;28;20181;-82
2021/09/05 18:05:07;;;;;;;13.40;10.53;;;20.90;99.90;;;;;;5035463;28;20185;-80
2021/09/05 18:07:32;;;;;;;13.93;9.23;;;20.70;99.90;;;;;;5036357;28;20173;-82
2021/09/05 18:09:58;;;;;;;11.60;7.27;;;20.50;99.90;;;;;;5035949;28;20421;-82
2021/09/05 18:12:24;;;;;;;8.63;7.83;;;20.40;99.90;;;;;;5035788;28;20204;-82
2021/09/05 18:14:49;;;;;;;10.23;9.13;;;20.30;99.90;;;;;;5033331;28;20199;-78
2021/09/05 18:17:15;;;;;;;9.73;8.80;;;20.10;99.90;;;;;;5032456;28;20178;-78
2021/09/05 18:19:40;;;;;;;9.13;6.50;;;19.90;99.90;;;;;;5014004;28;20229;-78
2021/09/05 18:22:06;;;;;;;6.83;6.13;;;19.80;99.90;;;;;;5032072;28;20201;-78
2021/09/05 18:24:32;;;;;;;7.60;5.60;;;19.60;99.90;;;;;;5031857;28;20196;-78
2021/09/05 18:26:57;;;;;;;5.77;5.13;;;19.50;99.90;;;;;;5014208;28;20178;-78